Terminal Aerodrome Forecast
Issued by NWS

Home | Current Version | Previous Version | Text Only | Print | Product List | Glossary Off
Versions: 1 2 3 4 5 6 7 8 9 10 11 12 13

000
FTUS43 KMPX 260600 AAA
TAFAXN
TAF AMD
KAXN 260631Z 2607/2706 35008KT 4SM -SN BR SCT020 OVC040
      TEMPO 2607/2609 2SM -SN BR OVC020
     FM260900 36009KT 6SM BR OVC008
     FM261800 34010KT P6SM OVC014=

USA.gov is the U.S. government's official web portal to all federal, state and local government web resources and services.